Terminal Aerodrome Forecast
Issued by NWS Grand Forks, ND

Home | Current Version | Previous Version | Graphics & Text | Print | Product List | Glossary On
Versions: 1 2 3 4 5 6 7 8 9 10 11 12 13 14 15 16
000
FTUS43 KFGF 241724
TAFGFK
TAF
KGFK 241724Z 2418/2518 28016G24KT P6SM SCT040
     FM241900 28016G26KT P6SM BKN040
     FM250200 25013KT P6SM BKN050
     FM250900 29010KT P6SM OVC035
     FM251400 30014KT P6SM BKN025
     FM251700 31013KT P6SM BKN040=

USA.gov is the U.S. government's official web portal to all federal, state and local government web resources and services.